sensor_id;sensor_type;location;lat;lon;timestamp;pressure;altitude;pressure_sealevel;temperature;humidity
11114;BME280;5610;52.154;9.198;2022-10-16T00:00:30;100225.00;;;15.38;100.00
11114;BME280;5610;52.154;9.198;2022-10-16T00:03:15;100223.56;;;15.34;100.00
11114;BME280;5610;52.154;9.198;2022-10-16T00:06:03;100225.94;;;15.28;100.00
11114;BME280;5610;52.154;9.198;2022-10-16T00:08:49;100234.94;;;15.17;100.00
11114;BME280;5610;52.154;9.198;2022-10-16T00:11:37;100222.19;;;15.09;100.00
11114;BME280;5610;52.154;9.198;2022-10-16T00:14:23;100228.13;;;15.13;100.00
11114;BME280;5610;52.154;9.198;2022-10-16T00:17:08;100224.66;;;15.22;100.00
11114;BME280;5610;52.154;9.198;2022-10-16T00:19:53;100234.13;;;15.26;100.00
11114;BME280;5610;52.154;9.198;2022-10-16T00:22:40;100244.47;;;15.31;100.00
11114;BME280;5610;52.154;9.198;2022-10-16T00:25:27;100243.19;;;15.35;100.00
11114;BME280;5610;52.154;9.198;2022-10-16T00:28:12;100250.31;;;15.46;100.00
11114;BME280;5610;52.154;9.198;2022-10-16T00:30:58;100247.03;;;15.42;100.00
11114;BME280;5610;52.154;9.198;2022-10-16T00:33:43;100240.13;;;15.49;100.00
11114;BME280;5610;52.154;9.198;2022-10-16T00:36:29;100246.94;;;15.53;100.00
11114;BME280;5610;52.154;9.198;2022-10-16T00:39:17;100244.97;;;15.55;100.00
11114;BME280;5610;52.154;9.198;2022-10-16T00:42:03;100249.78;;;15.52;100.00
11114;BME280;5610;52.154;9.198;2022-10-16T00:44:50;100258.22;;;15.47;100.00
11114;BME280;5610;52.154;9.198;2022-10-16T00:47:38;100253.84;;;15.46;100.00
11114;BME280;5610;52.154;9.198;2022-10-16T00:50:27;100241.00;;;15.50;100.00
11114;BME280;5610;52.154;9.198;2022-10-16T00:53:14;100236.06;;;15.55;100.00
11114;BME280;5610;52.154;9.198;2022-10-16T00:56:01;100252.53;;;15.61;100.00
11114;BME280;5610;52.154;9.198;2022-10-16T00:58:47;100243.72;;;15.59;100.00
11114;BME280;5610;52.154;9.198;2022-10-16T01:01:32;100239.59;;;15.55;100.00
11114;BME280;5610;52.154;9.198;2022-10-16T01:04:17;100225.88;;;15.49;100.00
11114;BME280;5610;52.154;9.198;2022-10-16T01:07:10;100232.75;;;15.42;100.00
11114;BME280;5610;52.154;9.198;2022-10-16T01:10:06;100236.28;;;15.42;100.00
11114;BME280;5610;52.154;9.198;2022-10-16T01:12:58;100242.50;;;15.43;100.00
11114;BME280;5610;52.154;9.198;2022-10-16T01:15:47;100241.25;;;15.37;100.00
11114;BME280;5610;52.154;9.198;2022-10-16T01:18:39;100248.84;;;15.32;100.00
11114;BME280;5610;52.154;9.198;2022-10-16T01:21:30;100252.06;;;15.26;100.00
11114;BME280;5610;52.154;9.198;2022-10-16T01:24:27;100256.72;;;15.24;100.00
11114;BME280;5610;52.154;9.198;2022-10-16T01:27:21;100252.13;;;15.15;100.00
11114;BME280;5610;52.154;9.198;2022-10-16T01:30:11;100256.97;;;15.21;100.00
11114;BME280;5610;52.154;9.198;2022-10-16T01:33:02;100257.25;;;15.18;100.00
11114;BME280;5610;52.154;9.198;2022-10-16T01:35:52;100265.81;;;15.11;100.00
11114;BME280;5610;52.154;9.198;2022-10-16T01:38:39;100269.81;;;15.17;100.00
11114;BME280;5610;52.154;9.198;2022-10-16T01:41:30;100268.69;;;15.20;100.00
11114;BME280;5610;52.154;9.198;2022-10-16T01:44:20;100272.38;;;15.19;100.00
11114;BME280;5610;52.154;9.198;2022-10-16T01:47:09;100268.22;;;15.15;100.00
11114;BME280;5610;52.154;9.198;2022-10-16T01:49:57;100268.97;;;15.17;100.00
11114;BME280;5610;52.154;9.198;2022-10-16T01:52:47;100266.16;;;15.18;100.00
11114;BME280;5610;52.154;9.198;2022-10-16T01:55:46;100266.41;;;15.15;100.00
11114;BME280;5610;52.154;9.198;2022-10-16T01:58:34;100283.63;;;15.13;100.00
11114;BME280;5610;52.154;9.198;2022-10-16T02:01:23;100282.63;;;15.14;100.00
11114;BME280;5610;52.154;9.198;2022-10-16T02:04:14;100281.22;;;15.09;100.00
11114;BME280;5610;52.154;9.198;2022-10-16T02:07:00;100287.44;;;15.10;100.00
11114;BME280;5610;52.154;9.198;2022-10-16T02:09:46;100281.75;;;15.03;100.00
11114;BME280;5610;52.154;9.198;2022-10-16T02:12:33;100281.75;;;15.03;100.00
11114;BME280;5610;52.154;9.198;2022-10-16T02:15:18;100292.94;;;15.08;100.00
11114;BME280;5610;52.154;9.198;2022-10-16T02:18:06;100280.03;;;15.02;100.00
11114;BME280;5610;52.154;9.198;2022-10-16T02:20:55;100283.44;;;15.04;100.00
11114;BME280;5610;52.154;9.198;2022-10-16T02:23:47;100288.53;;;15.07;100.00
11114;BME280;5610;52.154;9.198;2022-10-16T02:26:39;100280.47;;;15.07;100.00
11114;BME280;5610;52.154;9.198;2022-10-16T02:29:26;100288.00;;;15.14;100.00
11114;BME280;5610;52.154;9.198;2022-10-16T02:32:13;100281.53;;;15.16;100.00
11114;BME280;5610;52.154;9.198;2022-10-16T02:35:02;100294.69;;;15.19;100.00
11114;BME280;5610;52.154;9.198;2022-10-16T02:37:49;100290.38;;;15.07;100.00
11114;BME280;5610;52.154;9.198;2022-10-16T02:40:36;100295.91;;;15.15;100.00
11114;BME280;5610;52.154;9.198;2022-10-16T02:43:21;100283.38;;;15.16;100.00
11114;BME280;5610;52.154;9.198;2022-10-16T02:46:07;100278.72;;;15.18;100.00
11114;BME280;5610;52.154;9.198;2022-10-16T02:48:52;100272.50;;;15.17;100.00
11114;BME280;5610;52.154;9.198;2022-10-16T02:51:39;100269.09;;;15.15;100.00
11114;BME280;5610;52.154;9.198;2022-10-16T02:54:24;100270.16;;;15.03;100.00
11114;BME280;5610;52.154;9.198;2022-10-16T02:57:10;100278.72;;;14.97;100.00
11114;BME280;5610;52.154;9.198;2022-10-16T02:59:55;100257.94;;;14.89;100.00
11114;BME280;5610;52.154;9.198;2022-10-16T03:02:41;100273.41;;;14.65;100.00
11114;BME280;5610;52.154;9.198;2022-10-16T03:05:26;100280.59;;;14.64;100.00
11114;BME280;5610;52.154;9.198;2022-10-16T03:08:13;100284.44;;;14.50;100.00
11114;BME280;5610;52.154;9.198;2022-10-16T03:10:59;100291.16;;;14.45;100.00
11114;BME280;5610;52.154;9.198;2022-10-16T03:13:46;100280.09;;;14.38;100.00
11114;BME280;5610;52.154;9.198;2022-10-16T03:16:31;100275.34;;;14.30;100.00
11114;BME280;5610;52.154;9.198;2022-10-16T03:19:17;100274.28;;;14.22;100.00
11114;BME280;5610;52.154;9.198;2022-10-16T03:22:02;100282.59;;;14.08;100.00
11114;BME280;5610;52.154;9.198;2022-10-16T03:24:49;100285.28;;;14.08;100.00
11114;BME280;5610;52.154;9.198;2022-10-16T03:27:34;100288.47;;;14.01;100.00
11114;BME280;5610;52.154;9.198;2022-10-16T03:30:20;100303.69;;;14.01;100.00
11114;BME280;5610;52.154;9.198;2022-10-16T03:33:05;100300.66;;;14.06;100.00
11114;BME280;5610;52.154;9.198;2022-10-16T03:35:51;100300.63;;;14.17;100.00
11114;BME280;5610;52.154;9.198;2022-10-16T03:38:37;100307.56;;;14.19;100.00
11114;BME280;5610;52.154;9.198;2022-10-16T03:41:23;100309.13;;;14.22;100.00
11114;BME280;5610;52.154;9.198;2022-10-16T03:44:09;100304.59;;;14.22;100.00
11114;BME280;5610;52.154;9.198;2022-10-16T03:46:54;100298.63;;;14.30;100.00
11114;BME280;5610;52.154;9.198;2022-10-16T03:49:40;100290.53;;;14.41;100.00
11114;BME280;5610;52.154;9.198;2022-10-16T03:52:25;100287.38;;;14.36;100.00
11114;BME280;5610;52.154;9.198;2022-10-16T03:55:10;100293.84;;;14.45;100.00
11114;BME280;5610;52.154;9.198;2022-10-16T03:57:57;100287.53;;;14.46;100.00
11114;BME280;5610;52.154;9.198;2022-10-16T04:00:42;100300.28;;;14.42;100.00
11114;BME280;5610;52.154;9.198;2022-10-16T04:03:28;100309.03;;;14.44;100.00
11114;BME280;5610;52.154;9.198;2022-10-16T04:06:13;100302.22;;;14.51;100.00
11114;BME280;5610;52.154;9.198;2022-10-16T04:08:58;100306.16;;;14.47;100.00
11114;BME280;5610;52.154;9.198;2022-10-16T04:11:44;100305.66;;;14.42;100.00
11114;BME280;5610;52.154;9.198;2022-10-16T04:14:30;100319.09;;;14.31;100.00
11114;BME280;5610;52.154;9.198;2022-10-16T04:17:16;100320.34;;;14.16;100.00
11114;BME280;5610;52.154;9.198;2022-10-16T04:20:01;100311.44;;;14.26;100.00
11114;BME280;5610;52.154;9.198;2022-10-16T04:22:47;100320.81;;;14.21;100.00
11114;BME280;5610;52.154;9.198;2022-10-16T04:25:32;100331.81;;;14.18;100.00
11114;BME280;5610;52.154;9.198;2022-10-16T04:28:18;100318.63;;;14.15;100.00
11114;BME280;5610;52.154;9.198;2022-10-16T04:31:05;100316.44;;;14.20;100.00
11114;BME280;5610;52.154;9.198;2022-10-16T04:33:50;100313.91;;;14.18;100.00
11114;BME280;5610;52.154;9.198;2022-10-16T04:36:35;100315.25;;;14.13;100.00
11114;BME280;5610;52.154;9.198;2022-10-16T04:39:21;100313.53;;;14.12;100.00
11114;BME280;5610;52.154;9.198;2022-10-16T04:42:06;100319.53;;;14.04;100.00
11114;BME280;5610;52.154;9.198;2022-10-16T04:44:52;100324.88;;;14.04;100.00
11114;BME280;5610;52.154;9.198;2022-10-16T04:47:39;100321.13;;;13.95;100.00
11114;BME280;5610;52.154;9.198;2022-10-16T04:50:24;100321.72;;;13.88;100.00
11114;BME280;5610;52.154;9.198;2022-10-16T04:53:23;100336.84;;;13.89;100.00
11114;BME280;5610;52.154;9.198;2022-10-16T04:56:08;100341.06;;;13.80;100.00
11114;BME280;5610;52.154;9.198;2022-10-16T04:58:53;100342.19;;;13.78;100.00
11114;BME280;5610;52.154;9.198;2022-10-16T05:01:39;100356.91;;;13.83;100.00
11114;BME280;5610;52.154;9.198;2022-10-16T05:04:25;100332.94;;;13.82;100.00
11114;BME280;5610;52.154;9.198;2022-10-16T05:07:11;100344.25;;;13.96;100.00
11114;BME280;5610;52.154;9.198;2022-10-16T05:09:56;100344.94;;;14.21;100.00
11114;BME280;5610;52.154;9.198;2022-10-16T05:12:41;100356.72;;;14.41;100.00
11114;BME280;5610;52.154;9.198;2022-10-16T05:15:27;100350.13;;;14.56;100.00
11114;BME280;5610;52.154;9.198;2022-10-16T05:18:12;100358.03;;;14.57;100.00
11114;BME280;5610;52.154;9.198;2022-10-16T05:20:59;100360.47;;;14.61;100.00
11114;BME280;5610;52.154;9.198;2022-10-16T05:23:44;100361.81;;;14.66;100.00
11114;BME280;5610;52.154;9.198;2022-10-16T05:26:30;100351.78;;;14.68;100.00
11114;BME280;5610;52.154;9.198;2022-10-16T05:29:15;100360.66;;;14.80;100.00
11114;BME280;5610;52.154;9.198;2022-10-16T05:32:00;100359.66;;;14.81;100.00
11114;BME280;5610;52.154;9.198;2022-10-16T05:34:45;100364.25;;;14.90;100.00
11114;BME280;5610;52.154;9.198;2022-10-16T05:37:32;100359.16;;;14.87;100.00
11114;BME280;5610;52.154;9.198;2022-10-16T05:40:18;100357.97;;;15.01;100.00
11114;BME280;5610;52.154;9.198;2022-10-16T05:43:03;100345.53;;;15.00;100.00
11114;BME280;5610;52.154;9.198;2022-10-16T05:45:55;100363.75;;;14.96;100.00
11114;BME280;5610;52.154;9.198;2022-10-16T05:48:40;100380.22;;;14.92;100.00
11114;BME280;5610;52.154;9.198;2022-10-16T05:51:26;100373.75;;;14.94;100.00
11114;BME280;5610;52.154;9.198;2022-10-16T05:54:12;100379.22;;;14.93;100.00
11114;BME280;5610;52.154;9.198;2022-10-16T05:56:58;100378.72;;;14.99;100.00
11114;BME280;5610;52.154;9.198;2022-10-16T05:59:43;100380.19;;;15.03;100.00
11114;BME280;5610;52.154;9.198;2022-10-16T06:02:29;100376.44;;;15.15;100.00
11114;BME280;5610;52.154;9.198;2022-10-16T06:05:14;100387.44;;;15.12;100.00
11114;BME280;5610;52.154;9.198;2022-10-16T06:07:59;100398.22;;;15.22;100.00
11114;BME280;5610;52.154;9.198;2022-10-16T06:10:46;100414.59;;;15.19;100.00
11114;BME280;5610;52.154;9.198;2022-10-16T06:13:32;100403.22;;;15.26;100.00
11114;BME280;5610;52.154;9.198;2022-10-16T06:16:17;100410.44;;;15.26;100.00
11114;BME280;5610;52.154;9.198;2022-10-16T06:19:03;100411.94;;;15.19;100.00
11114;BME280;5610;52.154;9.198;2022-10-16T06:21:50;100417.75;;;15.24;100.00
11114;BME280;5610;52.154;9.198;2022-10-16T06:24:35;100414.56;;;15.30;100.00
11114;BME280;5610;52.154;9.198;2022-10-16T06:27:22;100426.00;;;15.32;100.00
11114;BME280;5610;52.154;9.198;2022-10-16T06:30:08;100424.31;;;15.31;100.00
11114;BME280;5610;52.154;9.198;2022-10-16T06:32:53;100422.28;;;15.23;100.00
11114;BME280;5610;52.154;9.198;2022-10-16T06:35:38;100421.78;;;15.29;100.00
11114;BME280;5610;52.154;9.198;2022-10-16T06:38:24;100431.38;;;15.32;100.00
11114;BME280;5610;52.154;9.198;2022-10-16T06:41:11;100436.81;;;15.42;100.00
11114;BME280;5610;52.154;9.198;2022-10-16T06:43:58;100437.22;;;15.37;100.00
11114;BME280;5610;52.154;9.198;2022-10-16T06:46:44;100438.19;;;15.36;100.00
11114;BME280;5610;52.154;9.198;2022-10-16T06:49:29;100435.63;;;15.55;100.00
11114;BME280;5610;52.154;9.198;2022-10-16T06:52:14;100444.44;;;15.78;100.00
11114;BME280;5610;52.154;9.198;2022-10-16T06:54:59;100443.50;;;15.89;100.00
11114;BME280;5610;52.154;9.198;2022-10-16T06:57:46;100439.88;;;16.00;100.00
11114;BME280;5610;52.154;9.198;2022-10-16T07:00:33;100444.84;;;16.04;100.00
11114;BME280;5610;52.154;9.198;2022-10-16T07:03:19;100454.56;;;15.96;100.00
11114;BME280;5610;52.154;9.198;2022-10-16T07:06:05;100455.22;;;16.09;100.00
11114;BME280;5610;52.154;9.198;2022-10-16T07:08:51;100456.38;;;16.16;100.00
11114;BME280;5610;52.154;9.198;2022-10-16T07:11:37;100457.91;;;16.09;100.00
11114;BME280;5610;52.154;9.198;2022-10-16T07:14:23;100461.91;;;16.14;100.00
11114;BME280;5610;52.154;9.198;2022-10-16T07:17:10;100478.72;;;16.16;100.00
11114;BME280;5610;52.154;9.198;2022-10-16T07:19:55;100473.53;;;16.25;100.00
11114;BME280;5610;52.154;9.198;2022-10-16T07:22:40;100485.00;;;16.27;100.00
11114;BME280;5610;52.154;9.198;2022-10-16T07:25:26;100485.38;;;16.43;100.00
11114;BME280;5610;52.154;9.198;2022-10-16T07:28:11;100495.91;;;16.35;100.00
11114;BME280;5610;52.154;9.198;2022-10-16T07:31:00;100502.91;;;16.47;100.00
11114;BME280;5610;52.154;9.198;2022-10-16T07:33:48;100494.91;;;16.57;100.00
11114;BME280;5610;52.154;9.198;2022-10-16T07:36:33;100500.59;;;16.63;100.00
11114;BME280;5610;52.154;9.198;2022-10-16T07:39:19;100504.97;;;16.64;100.00
11114;BME280;5610;52.154;9.198;2022-10-16T07:42:04;100506.88;;;16.73;100.00
11114;BME280;5610;52.154;9.198;2022-10-16T07:44:50;100514.53;;;16.78;100.00
11114;BME280;5610;52.154;9.198;2022-10-16T07:47:36;100526.84;;;16.81;100.00
11114;BME280;5610;52.154;9.198;2022-10-16T07:50:22;100533.69;;;17.04;100.00
11114;BME280;5610;52.154;9.198;2022-10-16T07:53:08;100535.53;;;17.03;100.00
11114;BME280;5610;52.154;9.198;2022-10-16T07:55:57;100542.38;;;17.08;100.00
11114;BME280;5610;52.154;9.198;2022-10-16T07:58:42;100540.56;;;17.27;100.00
11114;BME280;5610;52.154;9.198;2022-10-16T08:01:27;100548.06;;;17.34;100.00
11114;BME280;5610;52.154;9.198;2022-10-16T08:04:13;100560.56;;;17.44;100.00
11114;BME280;5610;52.154;9.198;2022-10-16T08:06:59;100553.91;;;17.58;100.00
11114;BME280;5610;52.154;9.198;2022-10-16T08:09:49;100565.97;;;17.64;100.00
11114;BME280;5610;52.154;9.198;2022-10-16T08:12:35;100570.03;;;17.29;100.00
11114;BME280;5610;52.154;9.198;2022-10-16T08:15:21;100567.59;;;17.26;100.00
11114;BME280;5610;52.154;9.198;2022-10-16T08:18:06;100572.56;;;17.21;100.00
11114;BME280;5610;52.154;9.198;2022-10-16T08:20:55;100565.09;;;17.34;100.00
11114;BME280;5610;52.154;9.198;2022-10-16T08:23:43;100562.22;;;17.26;100.00
11114;BME280;5610;52.154;9.198;2022-10-16T08:26:29;100566.75;;;17.25;100.00
11114;BME280;5610;52.154;9.198;2022-10-16T08:29:14;100560.41;;;17.36;100.00
11114;BME280;5610;52.154;9.198;2022-10-16T08:31:59;100571.88;;;17.28;100.00
11114;BME280;5610;52.154;9.198;2022-10-16T08:34:44;100573.56;;;17.29;100.00
11114;BME280;5610;52.154;9.198;2022-10-16T08:37:29;100579.84;;;17.49;100.00
11114;BME280;5610;52.154;9.198;2022-10-16T08:40:18;100572.22;;;17.74;100.00
11114;BME280;5610;52.154;9.198;2022-10-16T08:43:19;100581.16;;;17.94;100.00
11114;BME280;5610;52.154;9.198;2022-10-16T08:46:20;100587.00;;;18.46;100.00
11114;BME280;5610;52.154;9.198;2022-10-16T08:49:11;100587.25;;;18.62;100.00
11114;BME280;5610;52.154;9.198;2022-10-16T08:51:58;100598.22;;;18.51;100.00
11114;BME280;5610;52.154;9.198;2022-10-16T08:54:46;100590.53;;;18.56;100.00
11114;BME280;5610;52.154;9.198;2022-10-16T08:57:35;100601.19;;;18.94;100.00
11114;BME280;5610;52.154;9.198;2022-10-16T09:00:20;100583.53;;;18.73;100.00
11114;BME280;5610;52.154;9.198;2022-10-16T09:03:13;100602.31;;;19.02;100.00
11114;BME280;5610;52.154;9.198;2022-10-16T09:06:14;100603.00;;;19.31;100.00
11114;BME280;5610;52.154;9.198;2022-10-16T09:09:29;100612.41;;;19.72;100.00
11114;BME280;5610;52.154;9.198;2022-10-16T09:12:27;100621.31;;;20.26;100.00
11114;BME280;5610;52.154;9.198;2022-10-16T09:15:24;100627.31;;;20.82;100.00
11114;BME280;5610;52.154;9.198;2022-10-16T09:18:17;100641.53;;;20.84;98.67
11114;BME280;5610;52.154;9.198;2022-10-16T09:21:09;100640.66;;;21.09;97.80
11114;BME280;5610;52.154;9.198;2022-10-16T09:24:07;100632.22;;;21.21;93.01
11114;BME280;5610;52.154;9.198;2022-10-16T09:26:55;100633.69;;;21.49;92.98
11114;BME280;5610;52.154;9.198;2022-10-16T09:29:40;100632.31;;;22.20;88.36
11114;BME280;5610;52.154;9.198;2022-10-16T09:32:28;100638.72;;;21.94;85.22
11114;BME280;5610;52.154;9.198;2022-10-16T09:35:15;100628.50;;;22.62;82.29
11114;BME280;5610;52.154;9.198;2022-10-16T09:38:01;100633.09;;;22.69;81.90
11114;BME280;5610;52.154;9.198;2022-10-16T09:40:47;100638.56;;;23.17;75.13
11114;BME280;5610;52.154;9.198;2022-10-16T09:43:35;100639.50;;;23.71;70.87
11114;BME280;5610;52.154;9.198;2022-10-16T09:46:29;100639.56;;;23.86;70.23
11114;BME280;5610;52.154;9.198;2022-10-16T09:49:21;100642.75;;;24.73;65.78
11114;BME280;5610;52.154;9.198;2022-10-16T09:52:12;100643.34;;;25.64;63.21
11114;BME280;5610;52.154;9.198;2022-10-16T09:54:59;100642.84;;;26.89;57.37
11114;BME280;5610;52.154;9.198;2022-10-16T09:57:50;100644.97;;;27.82;53.08
11114;BME280;5610;52.154;9.198;2022-10-16T10:00:35;100653.00;;;27.90;49.84
11114;BME280;5610;52.154;9.198;2022-10-16T10:03:36;100653.25;;;28.88;47.86
11114;BME280;5610;52.154;9.198;2022-10-16T10:06:25;100648.06;;;30.71;43.62
11114;BME280;5610;52.154;9.198;2022-10-16T10:09:18;100646.16;;;34.43;38.82
11114;BME280;5610;52.154;9.198;2022-10-16T10:12:14;100642.25;;;37.26;34.94
11114;BME280;5610;52.154;9.198;2022-10-16T10:15:05;100660.63;;;36.79;32.68
11114;BME280;5610;52.154;9.198;2022-10-16T10:17:53;100667.63;;;35.25;35.42
11114;BME280;5610;52.154;9.198;2022-10-16T10:20:38;100655.94;;;33.88;36.71
11114;BME280;5610;52.154;9.198;2022-10-16T10:23:27;100656.25;;;34.04;36.55
11114;BME280;5610;52.154;9.198;2022-10-16T10:26:16;100670.66;;;36.21;34.25
11114;BME280;5610;52.154;9.198;2022-10-16T10:29:06;100661.00;;;36.29;33.60
11114;BME280;5610;52.154;9.198;2022-10-16T10:32:02;100668.97;;;38.91;31.02
11114;BME280;5610;52.154;9.198;2022-10-16T10:35:01;100667.69;;;41.67;28.47
11114;BME280;5610;52.154;9.198;2022-10-16T10:38:00;100676.31;;;40.46;27.60
11114;BME280;5610;52.154;9.198;2022-10-16T10:40:52;100673.34;;;39.23;28.95
11114;BME280;5610;52.154;9.198;2022-10-16T10:43:48;100673.34;;;39.23;28.60
11114;BME280;5610;52.154;9.198;2022-10-16T10:46:41;100660.59;;;40.55;28.51
11114;BME280;5610;52.154;9.198;2022-10-16T10:49:48;100669.28;;;41.06;27.17
11114;BME280;5610;52.154;9.198;2022-10-16T10:52:46;100661.28;;;39.97;28.72
11114;BME280;5610;52.154;9.198;2022-10-16T10:55:42;100668.38;;;39.05;28.92
11114;BME280;5610;52.154;9.198;2022-10-16T10:58:46;100659.59;;;39.47;29.23
11114;BME280;5610;52.154;9.198;2022-10-16T11:01:41;100663.06;;;40.22;28.04
11114;BME280;5610;52.154;9.198;2022-10-16T11:04:49;100654.53;;;41.25;27.24
11114;BME280;5610;52.154;9.198;2022-10-16T11:07:43;100665.47;;;40.97;27.16
11114;BME280;5610;52.154;9.198;2022-10-16T11:10:45;100659.59;;;42.55;26.20
11114;BME280;5610;52.154;9.198;2022-10-16T11:13:36;100668.44;;;43.36;24.82
11114;BME280;5610;52.154;9.198;2022-10-16T11:16:27;100655.56;;;40.81;26.46
11114;BME280;5610;52.154;9.198;2022-10-16T11:19:21;100653.38;;;40.49;27.50
11114;BME280;5610;52.154;9.198;2022-10-16T11:22:15;100666.53;;;42.76;25.48
11114;BME280;5610;52.154;9.198;2022-10-16T11:25:06;100656.88;;;43.65;23.91
11114;BME280;5610;52.154;9.198;2022-10-16T11:28:01;100664.78;;;44.35;23.70
11114;BME280;5610;52.154;9.198;2022-10-16T11:30:53;100671.66;;;44.06;23.66
11114;BME280;5610;52.154;9.198;2022-10-16T11:33:43;100665.31;;;40.83;26.41
11114;BME280;5610;52.154;9.198;2022-10-16T11:36:34;100669.91;;;43.47;25.03
11114;BME280;5610;52.154;9.198;2022-10-16T11:39:21;100665.88;;;45.93;22.41
11114;BME280;5610;52.154;9.198;2022-10-16T11:42:11;100669.88;;;48.54;21.06
11114;BME280;5610;52.154;9.198;2022-10-16T11:45:02;100673.06;;;49.10;19.76
11114;BME280;5610;52.154;9.198;2022-10-16T11:48:00;100663.38;;;45.74;22.53
11114;BME280;5610;52.154;9.198;2022-10-16T11:50:51;100670.63;;;44.47;22.90
11114;BME280;5610;52.154;9.198;2022-10-16T11:53:45;100663.94;;;44.57;22.77
11114;BME280;5610;52.154;9.198;2022-10-16T11:56:36;100666.56;;;46.24;21.41
11114;BME280;5610;52.154;9.198;2022-10-16T11:59:27;100659.41;;;48.42;19.90
11114;BME280;5610;52.154;9.198;2022-10-16T12:02:30;100662.66;;;50.91;19.69
11114;BME280;5610;52.154;9.198;2022-10-16T12:05:24;100659.91;;;51.10;18.56
11114;BME280;5610;52.154;9.198;2022-10-16T12:08:14;100661.84;;;49.51;18.93
11114;BME280;5610;52.154;9.198;2022-10-16T12:11:08;100666.72;;;48.56;20.27
11114;BME280;5610;52.154;9.198;2022-10-16T12:14:04;100661.97;;;44.35;22.45
11114;BME280;5610;52.154;9.198;2022-10-16T12:16:52;100672.53;;;46.32;21.65
11114;BME280;5610;52.154;9.198;2022-10-16T12:19:38;100665.50;;;48.11;20.70
11114;BME280;5610;52.154;9.198;2022-10-16T12:22:27;100660.16;;;49.62;20.13
11114;BME280;5610;52.154;9.198;2022-10-16T12:25:20;100668.97;;;51.32;18.50
11114;BME280;5610;52.154;9.198;2022-10-16T12:28:16;100658.59;;;51.94;18.36
11114;BME280;5610;52.154;9.198;2022-10-16T12:31:04;100662.84;;;53.98;17.20
11114;BME280;5610;52.154;9.198;2022-10-16T12:33:57;100653.72;;;53.82;17.14
11114;BME280;5610;52.154;9.198;2022-10-16T12:36:44;100659.00;;;54.50;16.82
11114;BME280;5610;52.154;9.198;2022-10-16T12:39:31;100667.16;;;54.93;16.86
11114;BME280;5610;52.154;9.198;2022-10-16T12:42:31;100665.38;;;55.29;16.69
11114;BME280;5610;52.154;9.198;2022-10-16T12:45:27;100678.16;;;54.50;16.08
11114;BME280;5610;52.154;9.198;2022-10-16T12:48:20;100682.88;;;52.50;17.70
11114;BME280;5610;52.154;9.198;2022-10-16T12:51:10;100690.97;;;52.70;17.79
11114;BME280;5610;52.154;9.198;2022-10-16T12:54:00;100695.38;;;50.01;18.54
11114;BME280;5610;52.154;9.198;2022-10-16T12:56:56;100688.38;;;49.70;18.46
11114;BME280;5610;52.154;9.198;2022-10-16T12:59:48;100683.47;;;49.43;18.63
11114;BME280;5610;52.154;9.198;2022-10-16T13:06:29;100690.91;;;50.72;18.16
11114;BME280;5610;52.154;9.198;2022-10-16T13:09:25;100695.78;;;51.03;18.67
11114;BME280;5610;52.154;9.198;2022-10-16T13:12:29;100710.38;;;51.68;17.74
11114;BME280;5610;52.154;9.198;2022-10-16T13:15:27;100712.63;;;50.96;18.20
11114;BME280;5610;52.154;9.198;2022-10-16T13:18:22;100702.81;;;51.41;18.25
11114;BME280;5610;52.154;9.198;2022-10-16T13:21:20;100698.97;;;51.49;17.51
11114;BME280;5610;52.154;9.198;2022-10-16T13:24:17;100720.88;;;51.48;17.75
11114;BME280;5610;52.154;9.198;2022-10-16T13:27:10;100726.09;;;51.30;17.97
11114;BME280;5610;52.154;9.198;2022-10-16T13:30:11;100712.38;;;51.32;17.61
11114;BME280;5610;52.154;9.198;2022-10-16T13:33:00;100729.16;;;47.20;19.86
11114;BME280;5610;52.154;9.198;2022-10-16T13:35:48;100728.41;;;48.75;19.50
11114;BME280;5610;52.154;9.198;2022-10-16T13:38:35;100723.94;;;48.74;19.01
11114;BME280;5610;52.154;9.198;2022-10-16T13:41:21;100729.03;;;48.05;19.16
11114;BME280;5610;52.154;9.198;2022-10-16T13:44:13;100723.66;;;46.94;20.25
11114;BME280;5610;52.154;9.198;2022-10-16T13:47:01;100718.41;;;47.14;20.40
11114;BME280;5610;52.154;9.198;2022-10-16T13:49:46;100728.69;;;47.18;20.53
11114;BME280;5610;52.154;9.198;2022-10-16T13:52:32;100721.50;;;47.68;20.08
11114;BME280;5610;52.154;9.198;2022-10-16T13:55:18;100723.16;;;47.89;20.44
11114;BME280;5610;52.154;9.198;2022-10-16T13:58:08;100728.19;;;48.26;20.19
11114;BME280;5610;52.154;9.198;2022-10-16T14:00:55;100736.81;;;48.50;19.23
11114;BME280;5610;52.154;9.198;2022-10-16T14:03:43;100725.72;;;48.24;19.25
11114;BME280;5610;52.154;9.198;2022-10-16T14:06:29;100735.84;;;47.54;19.87
11114;BME280;5610;52.154;9.198;2022-10-16T14:09:22;100738.03;;;47.48;19.62
11114;BME280;5610;52.154;9.198;2022-10-16T14:12:11;100737.38;;;47.04;20.42
11114;BME280;5610;52.154;9.198;2022-10-16T14:14:58;100737.63;;;44.31;21.91
11114;BME280;5610;52.154;9.198;2022-10-16T14:17:48;100751.25;;;44.60;21.71
11114;BME280;5610;52.154;9.198;2022-10-16T14:20:36;100748.69;;;43.78;22.71
11114;BME280;5610;52.154;9.198;2022-10-16T14:23:23;100749.78;;;44.41;21.96
11114;BME280;5610;52.154;9.198;2022-10-16T14:26:15;100746.97;;;43.91;22.11
11114;BME280;5610;52.154;9.198;2022-10-16T14:29:08;100744.16;;;38.96;26.30
11114;BME280;5610;52.154;9.198;2022-10-16T14:31:57;100756.25;;;36.62;28.26
11114;BME280;5610;52.154;9.198;2022-10-16T14:34:42;100765.66;;;33.13;33.14
11114;BME280;5610;52.154;9.198;2022-10-16T14:37:29;100759.22;;;34.68;31.43
11114;BME280;5610;52.154;9.198;2022-10-16T14:40:15;100757.50;;;31.92;33.68
11114;BME280;5610;52.154;9.198;2022-10-16T14:43:01;100775.56;;;30.83;35.72
11114;BME280;5610;52.154;9.198;2022-10-16T14:45:50;100768.41;;;29.48;38.84
11114;BME280;5610;52.154;9.198;2022-10-16T14:48:40;100773.25;;;28.40;39.08